sensor_id;sensor_type;location;lat;lon;timestamp;P1;durP1;ratioP1;P2;durP2;ratioP2
15555;SDS011;7879;48.660;9.116;2024-03-25T00:00:47;0.20;;;0.20;;
15555;SDS011;7879;48.660;9.116;2024-03-25T00:03:13;0.20;;;0.20;;
15555;SDS011;7879;48.660;9.116;2024-03-25T00:05:39;0.20;;;0.20;;
15555;SDS011;7879;48.660;9.116;2024-03-25T00:08:05;0.30;;;0.30;;
15555;SDS011;7879;48.660;9.116;2024-03-25T00:10:31;0.30;;;0.30;;
15555;SDS011;7879;48.660;9.116;2024-03-25T00:12:56;0.30;;;0.30;;
15555;SDS011;7879;48.660;9.116;2024-03-25T00:15:22;0.30;;;0.30;;
15555;SDS011;7879;48.660;9.116;2024-03-25T00:17:51;0.20;;;0.20;;
15555;SDS011;7879;48.660;9.116;2024-03-25T00:20:17;0.20;;;0.20;;
15555;SDS011;7879;48.660;9.116;2024-03-25T00:22:43;0.20;;;0.20;;
15555;SDS011;7879;48.660;9.116;2024-03-25T00:25:09;0.20;;;0.20;;
15555;SDS011;7879;48.660;9.116;2024-03-25T00:27:35;0.30;;;0.30;;
15555;SDS011;7879;48.660;9.116;2024-03-25T00:30:01;0.30;;;0.30;;
15555;SDS011;7879;48.660;9.116;2024-03-25T00:32:28;0.30;;;0.30;;
15555;SDS011;7879;48.660;9.116;2024-03-25T00:34:53;0.25;;;0.25;;
15555;SDS011;7879;48.660;9.116;2024-03-25T00:37:19;0.20;;;0.20;;
15555;SDS011;7879;48.660;9.116;2024-03-25T00:39:45;0.20;;;0.20;;
15555;SDS011;7879;48.660;9.116;2024-03-25T00:42:11;0.20;;;0.20;;
15555;SDS011;7879;48.660;9.116;2024-03-25T00:44:37;0.20;;;0.20;;
15555;SDS011;7879;48.660;9.116;2024-03-25T00:47:06;0.20;;;0.20;;
15555;SDS011;7879;48.660;9.116;2024-03-25T00:49:32;0.30;;;0.30;;
15555;SDS011;7879;48.660;9.116;2024-03-25T00:51:58;0.30;;;0.30;;
15555;SDS011;7879;48.660;9.116;2024-03-25T00:54:23;0.30;;;0.30;;
15555;SDS011;7879;48.660;9.116;2024-03-25T00:56:49;0.25;;;0.25;;
15555;SDS011;7879;48.660;9.116;2024-03-25T00:59:17;0.20;;;0.20;;
15555;SDS011;7879;48.660;9.116;2024-03-25T01:01:43;0.20;;;0.20;;
15555;SDS011;7879;48.660;9.116;2024-03-25T01:04:08;0.20;;;0.20;;
15555;SDS011;7879;48.660;9.116;2024-03-25T01:06:34;0.20;;;0.20;;
15555;SDS011;7879;48.660;9.116;2024-03-25T01:09:00;0.20;;;0.20;;
15555;SDS011;7879;48.660;9.116;2024-03-25T01:11:26;0.20;;;0.20;;
15555;SDS011;7879;48.660;9.116;2024-03-25T01:13:52;0.30;;;0.30;;
15555;SDS011;7879;48.660;9.116;2024-03-25T01:16:18;0.30;;;0.30;;
15555;SDS011;7879;48.660;9.116;2024-03-25T01:18:44;0.30;;;0.30;;
15555;SDS011;7879;48.660;9.116;2024-03-25T01:21:09;0.30;;;0.30;;
15555;SDS011;7879;48.660;9.116;2024-03-25T01:23:35;0.30;;;0.30;;
15555;SDS011;7879;48.660;9.116;2024-03-25T01:26:01;0.20;;;0.20;;
15555;SDS011;7879;48.660;9.116;2024-03-25T01:28:27;0.30;;;0.30;;
15555;SDS011;7879;48.660;9.116;2024-03-25T01:30:53;0.20;;;0.20;;
15555;SDS011;7879;48.660;9.116;2024-03-25T01:33:19;0.20;;;0.20;;
15555;SDS011;7879;48.660;9.116;2024-03-25T01:35:45;0.20;;;0.20;;
15555;SDS011;7879;48.660;9.116;2024-03-25T01:38:11;0.20;;;0.20;;
15555;SDS011;7879;48.660;9.116;2024-03-25T01:40:36;0.20;;;0.20;;
15555;SDS011;7879;48.660;9.116;2024-03-25T01:43:03;0.20;;;0.20;;
15555;SDS011;7879;48.660;9.116;2024-03-25T01:45:30;0.30;;;0.30;;
15555;SDS011;7879;48.660;9.116;2024-03-25T01:47:57;0.30;;;0.30;;
15555;SDS011;7879;48.660;9.116;2024-03-25T01:50:24;0.30;;;0.30;;
15555;SDS011;7879;48.660;9.116;2024-03-25T01:52:52;0.30;;;0.30;;
15555;SDS011;7879;48.660;9.116;2024-03-25T01:55:20;0.30;;;0.30;;
15555;SDS011;7879;48.660;9.116;2024-03-25T01:57:49;0.20;;;0.20;;
15555;SDS011;7879;48.660;9.116;2024-03-25T02:00:16;0.20;;;0.20;;
15555;SDS011;7879;48.660;9.116;2024-03-25T02:02:43;0.20;;;0.20;;
15555;SDS011;7879;48.660;9.116;2024-03-25T02:05:16;0.20;;;0.20;;
15555;SDS011;7879;48.660;9.116;2024-03-25T02:07:43;0.30;;;0.30;;
15555;SDS011;7879;48.660;9.116;2024-03-25T02:10:10;0.30;;;0.30;;
15555;SDS011;7879;48.660;9.116;2024-03-25T02:12:36;0.30;;;0.30;;
15555;SDS011;7879;48.660;9.116;2024-03-25T02:15:04;0.30;;;0.30;;
15555;SDS011;7879;48.660;9.116;2024-03-25T02:17:30;0.30;;;0.30;;
15555;SDS011;7879;48.660;9.116;2024-03-25T02:19:56;0.20;;;0.20;;
15555;SDS011;7879;48.660;9.116;2024-03-25T02:22:22;0.20;;;0.20;;
15555;SDS011;7879;48.660;9.116;2024-03-25T02:24:49;0.20;;;0.20;;
15555;SDS011;7879;48.660;9.116;2024-03-25T02:27:17;0.20;;;0.20;;
15555;SDS011;7879;48.660;9.116;2024-03-25T02:29:43;0.20;;;0.20;;
15555;SDS011;7879;48.660;9.116;2024-03-25T02:32:10;0.30;;;0.30;;
15555;SDS011;7879;48.660;9.116;2024-03-25T02:34:37;0.30;;;0.30;;
15555;SDS011;7879;48.660;9.116;2024-03-25T02:37:04;0.30;;;0.30;;
15555;SDS011;7879;48.660;9.116;2024-03-25T02:39:31;0.20;;;0.20;;
15555;SDS011;7879;48.660;9.116;2024-03-25T02:41:58;0.20;;;0.20;;
15555;SDS011;7879;48.660;9.116;2024-03-25T02:44:24;0.20;;;0.20;;
15555;SDS011;7879;48.660;9.116;2024-03-25T02:46:50;0.20;;;0.20;;
15555;SDS011;7879;48.660;9.116;2024-03-25T02:49:17;0.20;;;0.20;;
15555;SDS011;7879;48.660;9.116;2024-03-25T02:51:43;0.30;;;0.30;;
15555;SDS011;7879;48.660;9.116;2024-03-25T02:54:09;0.30;;;0.30;;
15555;SDS011;7879;48.660;9.116;2024-03-25T02:56:35;0.20;;;0.20;;
15555;SDS011;7879;48.660;9.116;2024-03-25T02:59:01;0.20;;;0.20;;
15555;SDS011;7879;48.660;9.116;2024-03-25T03:01:27;0.20;;;0.20;;
15555;SDS011;7879;48.660;9.116;2024-03-25T03:03:53;0.20;;;0.20;;
15555;SDS011;7879;48.660;9.116;2024-03-25T03:06:19;0.20;;;0.20;;
15555;SDS011;7879;48.660;9.116;2024-03-25T03:08:44;0.30;;;0.30;;
15555;SDS011;7879;48.660;9.116;2024-03-25T03:11:10;0.30;;;0.30;;
15555;SDS011;7879;48.660;9.116;2024-03-25T03:13:36;0.30;;;0.30;;
15555;SDS011;7879;48.660;9.116;2024-03-25T03:16:02;0.30;;;0.30;;
15555;SDS011;7879;48.660;9.116;2024-03-25T03:18:28;0.30;;;0.30;;
15555;SDS011;7879;48.660;9.116;2024-03-25T03:20:54;0.30;;;0.30;;
15555;SDS011;7879;48.660;9.116;2024-03-25T03:23:21;0.20;;;0.20;;
15555;SDS011;7879;48.660;9.116;2024-03-25T03:25:47;0.30;;;0.30;;
15555;SDS011;7879;48.660;9.116;2024-03-25T03:28:14;0.20;;;0.20;;
15555;SDS011;7879;48.660;9.116;2024-03-25T03:30:40;0.20;;;0.20;;
15555;SDS011;7879;48.660;9.116;2024-03-25T03:33:06;0.20;;;0.20;;
15555;SDS011;7879;48.660;9.116;2024-03-25T03:35:32;0.20;;;0.20;;
15555;SDS011;7879;48.660;9.116;2024-03-25T03:37:59;0.20;;;0.20;;
15555;SDS011;7879;48.660;9.116;2024-03-25T03:40:25;0.20;;;0.20;;
15555;SDS011;7879;48.660;9.116;2024-03-25T03:42:50;0.30;;;0.30;;
15555;SDS011;7879;48.660;9.116;2024-03-25T03:45:16;0.30;;;0.30;;
15555;SDS011;7879;48.660;9.116;2024-03-25T03:47:42;0.30;;;0.30;;
15555;SDS011;7879;48.660;9.116;2024-03-25T03:50:09;0.30;;;0.30;;
15555;SDS011;7879;48.660;9.116;2024-03-25T03:52:35;0.30;;;0.30;;
15555;SDS011;7879;48.660;9.116;2024-03-25T03:55:01;0.30;;;0.30;;
15555;SDS011;7879;48.660;9.116;2024-03-25T03:57:26;0.30;;;0.30;;
15555;SDS011;7879;48.660;9.116;2024-03-25T03:59:52;0.20;;;0.20;;
15555;SDS011;7879;48.660;9.116;2024-03-25T04:02:18;0.20;;;0.20;;
15555;SDS011;7879;48.660;9.116;2024-03-25T04:04:44;0.20;;;0.20;;
15555;SDS011;7879;48.660;9.116;2024-03-25T04:07:10;0.20;;;0.20;;
15555;SDS011;7879;48.660;9.116;2024-03-25T04:09:35;0.20;;;0.20;;
15555;SDS011;7879;48.660;9.116;2024-03-25T04:12:01;0.20;;;0.20;;
15555;SDS011;7879;48.660;9.116;2024-03-25T04:14:27;0.22;;;0.22;;
15555;SDS011;7879;48.660;9.116;2024-03-25T04:16:53;0.30;;;0.30;;
15555;SDS011;7879;48.660;9.116;2024-03-25T04:19:23;0.30;;;0.30;;
15555;SDS011;7879;48.660;9.116;2024-03-25T04:21:49;0.30;;;0.30;;
15555;SDS011;7879;48.660;9.116;2024-03-25T04:24:14;0.30;;;0.30;;
15555;SDS011;7879;48.660;9.116;2024-03-25T04:26:40;0.30;;;0.30;;
15555;SDS011;7879;48.660;9.116;2024-03-25T04:29:06;0.30;;;0.30;;
15555;SDS011;7879;48.660;9.116;2024-03-25T04:31:32;0.20;;;0.20;;
15555;SDS011;7879;48.660;9.116;2024-03-25T04:33:58;0.20;;;0.20;;
15555;SDS011;7879;48.660;9.116;2024-03-25T04:36:24;0.20;;;0.20;;
15555;SDS011;7879;48.660;9.116;2024-03-25T04:38:50;0.20;;;0.20;;
15555;SDS011;7879;48.660;9.116;2024-03-25T04:41:16;0.20;;;0.20;;
15555;SDS011;7879;48.660;9.116;2024-03-25T04:43:42;0.20;;;0.20;;
15555;SDS011;7879;48.660;9.116;2024-03-25T04:46:08;0.20;;;0.20;;
15555;SDS011;7879;48.660;9.116;2024-03-25T04:48:33;0.30;;;0.30;;
15555;SDS011;7879;48.660;9.116;2024-03-25T04:50:59;0.30;;;0.30;;
15555;SDS011;7879;48.660;9.116;2024-03-25T04:53:25;0.30;;;0.30;;
15555;SDS011;7879;48.660;9.116;2024-03-25T04:55:51;0.30;;;0.30;;
15555;SDS011;7879;48.660;9.116;2024-03-25T04:58:17;0.30;;;0.30;;
15555;SDS011;7879;48.660;9.116;2024-03-25T05:00:43;0.30;;;0.30;;
15555;SDS011;7879;48.660;9.116;2024-03-25T05:03:08;0.30;;;0.30;;
15555;SDS011;7879;48.660;9.116;2024-03-25T05:05:35;0.30;;;0.30;;
15555;SDS011;7879;48.660;9.116;2024-03-25T05:08:01;0.20;;;0.20;;
15555;SDS011;7879;48.660;9.116;2024-03-25T05:10:28;0.20;;;0.20;;
15555;SDS011;7879;48.660;9.116;2024-03-25T05:12:54;0.20;;;0.20;;
15555;SDS011;7879;48.660;9.116;2024-03-25T05:15:20;0.20;;;0.20;;
15555;SDS011;7879;48.660;9.116;2024-03-25T05:17:46;0.20;;;0.20;;
15555;SDS011;7879;48.660;9.116;2024-03-25T05:20:12;0.20;;;0.20;;
15555;SDS011;7879;48.660;9.116;2024-03-25T05:22:38;0.20;;;0.20;;
15555;SDS011;7879;48.660;9.116;2024-03-25T05:25:04;0.20;;;0.20;;
15555;SDS011;7879;48.660;9.116;2024-03-25T05:27:30;0.20;;;0.20;;
15555;SDS011;7879;48.660;9.116;2024-03-25T05:29:55;0.20;;;0.20;;
15555;SDS011;7879;48.660;9.116;2024-03-25T05:32:21;0.20;;;0.20;;
15555;SDS011;7879;48.660;9.116;2024-03-25T05:34:47;0.20;;;0.20;;
15555;SDS011;7879;48.660;9.116;2024-03-25T05:37:16;0.20;;;0.20;;
15555;SDS011;7879;48.660;9.116;2024-03-25T05:39:42;0.30;;;0.30;;
15555;SDS011;7879;48.660;9.116;2024-03-25T05:42:07;0.30;;;0.30;;
15555;SDS011;7879;48.660;9.116;2024-03-25T05:44:33;0.30;;;0.30;;
15555;SDS011;7879;48.660;9.116;2024-03-25T05:46:59;0.30;;;0.30;;
15555;SDS011;7879;48.660;9.116;2024-03-25T05:49:25;0.20;;;0.20;;
15555;SDS011;7879;48.660;9.116;2024-03-25T05:51:51;0.20;;;0.20;;
15555;SDS011;7879;48.660;9.116;2024-03-25T05:54:17;0.20;;;0.20;;
15555;SDS011;7879;48.660;9.116;2024-03-25T05:56:42;0.20;;;0.20;;
15555;SDS011;7879;48.660;9.116;2024-03-25T05:59:08;0.20;;;0.20;;
15555;SDS011;7879;48.660;9.116;2024-03-25T06:01:34;0.20;;;0.20;;
15555;SDS011;7879;48.660;9.116;2024-03-25T06:04:03;0.30;;;0.30;;
15555;SDS011;7879;48.660;9.116;2024-03-25T06:06:29;0.30;;;0.30;;
15555;SDS011;7879;48.660;9.116;2024-03-25T06:08:55;0.30;;;0.30;;
15555;SDS011;7879;48.660;9.116;2024-03-25T06:11:20;0.30;;;0.30;;
15555;SDS011;7879;48.660;9.116;2024-03-25T06:13:47;0.30;;;0.30;;
15555;SDS011;7879;48.660;9.116;2024-03-25T06:16:13;0.20;;;0.20;;
15555;SDS011;7879;48.660;9.116;2024-03-25T06:18:39;0.20;;;0.20;;
15555;SDS011;7879;48.660;9.116;2024-03-25T06:21:05;0.20;;;0.20;;
15555;SDS011;7879;48.660;9.116;2024-03-25T06:23:31;0.30;;;0.30;;
15555;SDS011;7879;48.660;9.116;2024-03-25T06:25:57;0.30;;;0.30;;
15555;SDS011;7879;48.660;9.116;2024-03-25T06:28:23;0.30;;;0.30;;
15555;SDS011;7879;48.660;9.116;2024-03-25T06:30:49;0.20;;;0.20;;
15555;SDS011;7879;48.660;9.116;2024-03-25T06:33:35;0.20;;;0.20;;
15555;SDS011;7879;48.660;9.116;2024-03-25T06:36:20;0.30;;;0.30;;
15555;SDS011;7879;48.660;9.116;2024-03-25T06:38:46;0.30;;;0.30;;
15555;SDS011;7879;48.660;9.116;2024-03-25T06:41:12;0.20;;;0.20;;
15555;SDS011;7879;48.660;9.116;2024-03-25T06:43:38;0.20;;;0.20;;
15555;SDS011;7879;48.660;9.116;2024-03-25T06:46:05;0.13;;;0.13;;
15555;SDS011;7879;48.660;9.116;2024-03-25T06:48:31;0.20;;;0.20;;
15555;SDS011;7879;48.660;9.116;2024-03-25T06:50:59;0.30;;;0.30;;
15555;SDS011;7879;48.660;9.116;2024-03-25T06:53:25;0.30;;;0.30;;
15555;SDS011;7879;48.660;9.116;2024-03-25T06:56:00;0.20;;;0.20;;
15555;SDS011;7879;48.660;9.116;2024-03-25T06:58:27;0.10;;;0.10;;
15555;SDS011;7879;48.660;9.116;2024-03-25T07:00:53;0.17;;;0.17;;
15555;SDS011;7879;48.660;9.116;2024-03-25T07:03:20;0.30;;;0.30;;
15555;SDS011;7879;48.660;9.116;2024-03-25T07:05:50;0.27;;;0.27;;
15555;SDS011;7879;48.660;9.116;2024-03-25T07:08:17;0.20;;;0.20;;
15555;SDS011;7879;48.660;9.116;2024-03-25T07:10:45;0.10;;;0.10;;
15555;SDS011;7879;48.660;9.116;2024-03-25T07:13:11;0.20;;;0.20;;
15555;SDS011;7879;48.660;9.116;2024-03-25T07:15:38;0.20;;;0.20;;
15555;SDS011;7879;48.660;9.116;2024-03-25T07:18:05;0.20;;;0.20;;
15555;SDS011;7879;48.660;9.116;2024-03-25T07:20:31;0.30;;;0.30;;
15555;SDS011;7879;48.660;9.116;2024-03-25T07:22:57;0.30;;;0.30;;
15555;SDS011;7879;48.660;9.116;2024-03-25T07:25:23;0.20;;;0.20;;
15555;SDS011;7879;48.660;9.116;2024-03-25T07:27:50;0.17;;;0.17;;
15555;SDS011;7879;48.660;9.116;2024-03-25T07:30:16;0.30;;;0.30;;
15555;SDS011;7879;48.660;9.116;2024-03-25T07:32:42;0.20;;;0.20;;
15555;SDS011;7879;48.660;9.116;2024-03-25T07:35:10;0.10;;;0.10;;
15555;SDS011;7879;48.660;9.116;2024-03-25T07:37:36;0.20;;;0.20;;
15555;SDS011;7879;48.660;9.116;2024-03-25T07:40:02;0.17;;;0.17;;
15555;SDS011;7879;48.660;9.116;2024-03-25T07:42:31;0.28;;;0.28;;
15555;SDS011;7879;48.660;9.116;2024-03-25T07:44:57;0.17;;;0.17;;
15555;SDS011;7879;48.660;9.116;2024-03-25T07:47:23;0.13;;;0.13;;
15555;SDS011;7879;48.660;9.116;2024-03-25T07:49:49;0.30;;;0.30;;
15555;SDS011;7879;48.660;9.116;2024-03-25T07:52:14;0.20;;;0.20;;
15555;SDS011;7879;48.660;9.116;2024-03-25T07:54:40;0.10;;;0.10;;
15555;SDS011;7879;48.660;9.116;2024-03-25T07:57:08;0.30;;;0.30;;
15555;SDS011;7879;48.660;9.116;2024-03-25T07:59:34;0.10;;;0.10;;
15555;SDS011;7879;48.660;9.116;2024-03-25T08:02:00;0.20;;;0.20;;
15555;SDS011;7879;48.660;9.116;2024-03-25T08:04:26;0.20;;;0.20;;
15555;SDS011;7879;48.660;9.116;2024-03-25T08:06:52;0.10;;;0.10;;
15555;SDS011;7879;48.660;9.116;2024-03-25T08:09:18;0.20;;;0.20;;
15555;SDS011;7879;48.660;9.116;2024-03-25T08:11:45;0.20;;;0.20;;
15555;SDS011;7879;48.660;9.116;2024-03-25T08:14:11;0.10;;;0.10;;
15555;SDS011;7879;48.660;9.116;2024-03-25T08:16:37;0.20;;;0.20;;
15555;SDS011;7879;48.660;9.116;2024-03-25T08:19:03;0.10;;;0.10;;
15555;SDS011;7879;48.660;9.116;2024-03-25T08:21:29;0.20;;;0.20;;
15555;SDS011;7879;48.660;9.116;2024-03-25T08:23:55;0.10;;;0.10;;
15555;SDS011;7879;48.660;9.116;2024-03-25T08:26:21;0.20;;;0.20;;
15555;SDS011;7879;48.660;9.116;2024-03-25T08:28:47;0.10;;;0.10;;
15555;SDS011;7879;48.660;9.116;2024-03-25T08:31:16;0.20;;;0.20;;
15555;SDS011;7879;48.660;9.116;2024-03-25T08:33:42;0.10;;;0.10;;
15555;SDS011;7879;48.660;9.116;2024-03-25T08:36:08;0.20;;;0.20;;
15555;SDS011;7879;48.660;9.116;2024-03-25T08:38:34;0.10;;;0.10;;
15555;SDS011;7879;48.660;9.116;2024-03-25T08:41:00;0.10;;;0.10;;
15555;SDS011;7879;48.660;9.116;2024-03-25T08:43:26;0.20;;;0.20;;
15555;SDS011;7879;48.660;9.116;2024-03-25T08:45:52;0.10;;;0.10;;
15555;SDS011;7879;48.660;9.116;2024-03-25T08:48:18;0.10;;;0.10;;
15555;SDS011;7879;48.660;9.116;2024-03-25T08:50:43;0.20;;;0.20;;
15555;SDS011;7879;48.660;9.116;2024-03-25T08:53:10;0.10;;;0.10;;
15555;SDS011;7879;48.660;9.116;2024-03-25T08:55:36;0.15;;;0.15;;
15555;SDS011;7879;48.660;9.116;2024-03-25T08:58:01;0.20;;;0.20;;
15555;SDS011;7879;48.660;9.116;2024-03-25T09:00:28;0.10;;;0.10;;
15555;SDS011;7879;48.660;9.116;2024-03-25T09:02:54;0.10;;;0.10;;
15555;SDS011;7879;48.660;9.116;2024-03-25T09:05:20;0.10;;;0.10;;
15555;SDS011;7879;48.660;9.116;2024-03-25T09:07:50;0.10;;;0.10;;
15555;SDS011;7879;48.660;9.116;2024-03-25T09:10:20;0.15;;;0.15;;
15555;SDS011;7879;48.660;9.116;2024-03-25T09:13:04;0.10;;;0.10;;
15555;SDS011;7879;48.660;9.116;2024-03-25T09:15:31;0.10;;;0.10;;
15555;SDS011;7879;48.660;9.116;2024-03-25T09:17:57;0.10;;;0.10;;
15555;SDS011;7879;48.660;9.116;2024-03-25T09:20:23;0.10;;;0.10;;
15555;SDS011;7879;48.660;9.116;2024-03-25T09:22:49;0.10;;;0.10;;
15555;SDS011;7879;48.660;9.116;2024-03-25T09:25:15;0.10;;;0.10;;
15555;SDS011;7879;48.660;9.116;2024-03-25T09:27:48;0.10;;;0.10;;
15555;SDS011;7879;48.660;9.116;2024-03-25T09:30:15;0.10;;;0.10;;
15555;SDS011;7879;48.660;9.116;2024-03-25T09:32:43;0.10;;;0.10;;
15555;SDS011;7879;48.660;9.116;2024-03-25T09:35:09;0.10;;;0.10;;
15555;SDS011;7879;48.660;9.116;2024-03-25T09:37:36;0.10;;;0.10;;
15555;SDS011;7879;48.660;9.116;2024-03-25T09:40:02;0.10;;;0.10;;
15555;SDS011;7879;48.660;9.116;2024-03-25T09:42:43;0.10;;;0.10;;
15555;SDS011;7879;48.660;9.116;2024-03-25T09:45:13;0.03;;;0.03;;
15555;SDS011;7879;48.660;9.116;2024-03-25T09:47:45;0.00;;;0.00;;
15555;SDS011;7879;48.660;9.116;2024-03-25T09:50:15;0.00;;;0.00;;
15555;SDS011;7879;48.660;9.116;2024-03-25T09:52:48;0.10;;;0.10;;
15555;SDS011;7879;48.660;9.116;2024-03-25T09:55:17;0.00;;;0.00;;
15555;SDS011;7879;48.660;9.116;2024-03-25T09:57:43;0.00;;;0.00;;
15555;SDS011;7879;48.660;9.116;2024-03-25T10:00:10;0.00;;;0.00;;
15555;SDS011;7879;48.660;9.116;2024-03-25T10:02:37;0.00;;;0.00;;
15555;SDS011;7879;48.660;9.116;2024-03-25T10:05:05;0.00;;;0.00;;
15555;SDS011;7879;48.660;9.116;2024-03-25T10:07:32;0.00;;;0.00;;
15555;SDS011;7879;48.660;9.116;2024-03-25T10:09:58;0.00;;;0.00;;
15555;SDS011;7879;48.660;9.116;2024-03-25T10:12:24;0.00;;;0.00;;
15555;SDS011;7879;48.660;9.116;2024-03-25T10:14:50;0.00;;;0.00;;
15555;SDS011;7879;48.660;9.116;2024-03-25T10:17:16;0.00;;;0.00;;
15555;SDS011;7879;48.660;9.116;2024-03-25T10:19:42;0.00;;;0.00;;
15555;SDS011;7879;48.660;9.116;2024-03-25T10:22:08;0.00;;;0.00;;
15555;SDS011;7879;48.660;9.116;2024-03-25T10:24:41;0.00;;;0.00;;
15555;SDS011;7879;48.660;9.116;2024-03-25T10:27:18;0.00;;;0.00;;
15555;SDS011;7879;48.660;9.116;2024-03-25T10:29:54;0.00;;;0.00;;
15555;SDS011;7879;48.660;9.116;2024-03-25T10:32:21;0.00;;;0.00;;
15555;SDS011;7879;48.660;9.116;2024-03-25T10:34:50;0.00;;;0.00;;
15555;SDS011;7879;48.660;9.116;2024-03-25T10:37:16;0.00;;;0.00;;
15555;SDS011;7879;48.660;9.116;2024-03-25T10:39:47;0.00;;;0.00;;
15555;SDS011;7879;48.660;9.116;2024-03-25T10:42:14;0.00;;;0.00;;
15555;SDS011;7879;48.660;9.116;2024-03-25T10:44:44;0.00;;;0.00;;
15555;SDS011;7879;48.660;9.116;2024-03-25T10:47:14;0.00;;;0.00;;
15555;SDS011;7879;48.660;9.116;2024-03-25T10:52:26;0.00;;;0.00;;
15555;SDS011;7879;48.660;9.116;2024-03-25T10:54:54;0.00;;;0.00;;
15555;SDS011;7879;48.660;9.116;2024-03-25T10:57:21;0.00;;;0.00;;
15555;SDS011;7879;48.660;9.116;2024-03-25T10:59:48;0.00;;;0.00;;
15555;SDS011;7879;48.660;9.116;2024-03-25T11:02:14;0.00;;;0.00;;
15555;SDS011;7879;48.660;9.116;2024-03-25T11:04:43;0.00;;;0.00;;
15555;SDS011;7879;48.660;9.116;2024-03-25T11:07:14;0.00;;;0.00;;
15555;SDS011;7879;48.660;9.116;2024-03-25T11:09:40;0.00;;;0.00;;
15555;SDS011;7879;48.660;9.116;2024-03-25T11:12:11;0.00;;;0.00;;
15555;SDS011;7879;48.660;9.116;2024-03-25T11:14:37;0.00;;;0.00;;
15555;SDS011;7879;48.660;9.116;2024-03-25T11:17:14;0.00;;;0.00;;
15555;SDS011;7879;48.660;9.116;2024-03-25T11:19:41;0.00;;;0.00;;
15555;SDS011;7879;48.660;9.116;2024-03-25T11:22:07;0.00;;;0.00;;
15555;SDS011;7879;48.660;9.116;2024-03-25T11:24:38;0.00;;;0.00;;
15555;SDS011;7879;48.660;9.116;2024-03-25T11:27:09;0.00;;;0.00;;
15555;SDS011;7879;48.660;9.116;2024-03-25T11:29:35;0.00;;;0.00;;
15555;SDS011;7879;48.660;9.116;2024-03-25T11:32:04;0.00;;;0.00;;
15555;SDS011;7879;48.660;9.116;2024-03-25T11:34:31;0.00;;;0.00;;
15555;SDS011;7879;48.660;9.116;2024-03-25T11:36:57;0.00;;;0.00;;
15555;SDS011;7879;48.660;9.116;2024-03-25T11:39:23;0.00;;;0.00;;
15555;SDS011;7879;48.660;9.116;2024-03-25T11:41:54;0.00;;;0.00;;
15555;SDS011;7879;48.660;9.116;2024-03-25T11:44:20;0.00;;;0.00;;
15555;SDS011;7879;48.660;9.116;2024-03-25T11:46:49;0.00;;;0.00;;
15555;SDS011;7879;48.660;9.116;2024-03-25T11:49:16;0.00;;;0.00;;
15555;SDS011;7879;48.660;9.116;2024-03-25T11:51:45;0.00;;;0.00;;
15555;SDS011;7879;48.660;9.116;2024-03-25T11:54:11;0.00;;;0.00;;
15555;SDS011;7879;48.660;9.116;2024-03-25T11:56:38;0.00;;;0.00;;
15555;SDS011;7879;48.660;9.116;2024-03-25T11:59:04;0.00;;;0.00;;
15555;SDS011;7879;48.660;9.116;2024-03-25T12:01:30;0.00;;;0.00;;
15555;SDS011;7879;48.660;9.116;2024-03-25T12:03:56;0.00;;;0.00;;
15555;SDS011;7879;48.660;9.116;2024-03-25T12:06:22;0.00;;;0.00;;
15555;SDS011;7879;48.660;9.116;2024-03-25T12:08:48;0.00;;;0.00;;
15555;SDS011;7879;48.660;9.116;2024-03-25T12:11:33;0.00;;;0.00;;
15555;SDS011;7879;48.660;9.116;2024-03-25T12:14:00;0.00;;;0.00;;
15555;SDS011;7879;48.660;9.116;2024-03-25T12:16:27;0.00;;;0.00;;
15555;SDS011;7879;48.660;9.116;2024-03-25T12:18:52;0.00;;;0.00;;
15555;SDS011;7879;48.660;9.116;2024-03-25T12:21:19;0.00;;;0.00;;
15555;SDS011;7879;48.660;9.116;2024-03-25T12:23:46;0.00;;;0.00;;
15555;SDS011;7879;48.660;9.116;2024-03-25T12:26:13;0.00;;;0.00;;
15555;SDS011;7879;48.660;9.116;2024-03-25T12:28:39;0.00;;;0.00;;
15555;SDS011;7879;48.660;9.116;2024-03-25T12:31:08;0.00;;;0.00;;
15555;SDS011;7879;48.660;9.116;2024-03-25T12:33:48;0.00;;;0.00;;
15555;SDS011;7879;48.660;9.116;2024-03-25T12:36:14;0.00;;;0.00;;
15555;SDS011;7879;48.660;9.116;2024-03-25T12:38:40;0.00;;;0.00;;
15555;SDS011;7879;48.660;9.116;2024-03-25T12:41:09;0.00;;;0.00;;
15555;SDS011;7879;48.660;9.116;2024-03-25T12:43:41;0.00;;;0.00;;
15555;SDS011;7879;48.660;9.116;2024-03-25T12:46:08;0.00;;;0.00;;
15555;SDS011;7879;48.660;9.116;2024-03-25T12:48:35;0.00;;;0.00;;
15555;SDS011;7879;48.660;9.116;2024-03-25T12:51:02;0.00;;;0.00;;
15555;SDS011;7879;48.660;9.116;2024-03-25T12:53:28;0.00;;;0.00;;
15555;SDS011;7879;48.660;9.116;2024-03-25T12:55:53;0.00;;;0.00;;
15555;SDS011;7879;48.660;9.116;2024-03-25T12:58:19;0.00;;;0.00;;
15555;SDS011;7879;48.660;9.116;2024-03-25T13:00:45;0.00;;;0.00;;
15555;SDS011;7879;48.660;9.116;2024-03-25T13:03:11;0.00;;;0.00;;
15555;SDS011;7879;48.660;9.116;2024-03-25T13:05:38;0.00;;;0.00;;
15555;SDS011;7879;48.660;9.116;2024-03-25T13:08:04;0.00;;;0.00;;
15555;SDS011;7879;48.660;9.116;2024-03-25T13:10:30;0.10;;;0.10;;
15555;SDS011;7879;48.660;9.116;2024-03-25T13:12:56;0.10;;;0.10;;
15555;SDS011;7879;48.660;9.116;2024-03-25T13:15:22;0.10;;;0.10;;
15555;SDS011;7879;48.660;9.116;2024-03-25T13:17:48;0.07;;;0.07;;
15555;SDS011;7879;48.660;9.116;2024-03-25T13:20:15;0.10;;;0.10;;
15555;SDS011;7879;48.660;9.116;2024-03-25T13:22:41;0.10;;;0.10;;
15555;SDS011;7879;48.660;9.116;2024-03-25T13:25:08;0.10;;;0.10;;
15555;SDS011;7879;48.660;9.116;2024-03-25T13:27:34;0.10;;;0.10;;
15555;SDS011;7879;48.660;9.116;2024-03-25T13:30:00;0.10;;;0.10;;
15555;SDS011;7879;48.660;9.116;2024-03-25T13:32:26;0.10;;;0.10;;
15555;SDS011;7879;48.660;9.116;2024-03-25T13:34:52;0.10;;;0.10;;
15555;SDS011;7879;48.660;9.116;2024-03-25T13:37:18;0.10;;;0.10;;
15555;SDS011;7879;48.660;9.116;2024-03-25T13:39:44;0.10;;;0.10;;
15555;SDS011;7879;48.660;9.116;2024-03-25T13:42:11;0.10;;;0.10;;
15555;SDS011;7879;48.660;9.116;2024-03-25T13:44:37;0.17;;;0.17;;
15555;SDS011;7879;48.660;9.116;2024-03-25T13:47:03;0.10;;;0.10;;
15555;SDS011;7879;48.660;9.116;2024-03-25T13:49:29;0.10;;;0.10;;
15555;SDS011;7879;48.660;9.116;2024-03-25T13:51:58;0.10;;;0.10;;
15555;SDS011;7879;48.660;9.116;2024-03-25T13:54:27;0.10;;;0.10;;
15555;SDS011;7879;48.660;9.116;2024-03-25T13:56:53;0.10;;;0.10;;
15555;SDS011;7879;48.660;9.116;2024-03-25T13:59:19;0.10;;;0.10;;
15555;SDS011;7879;48.660;9.116;2024-03-25T14:01:45;0.10;;;0.10;;
15555;SDS011;7879;48.660;9.116;2024-03-25T14:04:11;0.10;;;0.10;;
15555;SDS011;7879;48.660;9.116;2024-03-25T14:06:37;0.10;;;0.10;;
15555;SDS011;7879;48.660;9.116;2024-03-25T14:09:03;0.10;;;0.10;;
15555;SDS011;7879;48.660;9.116;2024-03-25T14:11:35;0.10;;;0.10;;
15555;SDS011;7879;48.660;9.116;2024-03-25T14:14:01;0.10;;;0.10;;
15555;SDS011;7879;48.660;9.116;2024-03-25T14:16:28;0.10;;;0.10;;
15555;SDS011;7879;48.660;9.116;2024-03-25T14:18:54;0.10;;;0.10;;
15555;SDS011;7879;48.660;9.116;2024-03-25T14:21:20;0.10;;;0.10;;
15555;SDS011;7879;48.660;9.116;2024-03-25T14:23:46;0.10;;;0.10;;
15555;SDS011;7879;48.660;9.116;2024-03-25T14:26:12;0.10;;;0.10;;
15555;SDS011;7879;48.660;9.116;2024-03-25T14:28:40;0.10;;;0.10;;
15555;SDS011;7879;48.660;9.116;2024-03-25T14:31:06;0.10;;;0.10;;
15555;SDS011;7879;48.660;9.116;2024-03-25T14:33:32;0.10;;;0.10;;
15555;SDS011;7879;48.660;9.116;2024-03-25T14:35:58;0.10;;;0.10;;
15555;SDS011;7879;48.660;9.116;2024-03-25T14:38:24;0.10;;;0.10;;
15555;SDS011;7879;48.660;9.116;2024-03-25T14:40:51;0.10;;;0.10;;
15555;SDS011;7879;48.660;9.116;2024-03-25T14:43:18;0.10;;;0.10;;
15555;SDS011;7879;48.660;9.116;2024-03-25T14:45:45;0.10;;;0.10;;
15555;SDS011;7879;48.660;9.116;2024-03-25T14:48:11;0.10;;;0.10;;
15555;SDS011;7879;48.660;9.116;2024-03-25T14:50:37;0.10;;;0.10;;
15555;SDS011;7879;48.660;9.116;2024-03-25T14:53:04;0.10;;;0.10;;
15555;SDS011;7879;48.660;9.116;2024-03-25T14:55:30;0.10;;;0.10;;
15555;SDS011;7879;48.660;9.116;2024-03-25T14:57:56;0.10;;;0.10;;
15555;SDS011;7879;48.660;9.116;2024-03-25T15:00:22;0.20;;;0.20;;